sensor_id;sensor_type;location;lat;lon;timestamp;P1;durP1;ratioP1;P2;durP2;ratioP2
22826;SDS011;11580;52.562;13.418;2022-08-11T00:02:24;2.77;;;2.33;;
22826;SDS011;11580;52.562;13.418;2022-08-11T00:05:06;2.70;;;2.50;;
22826;SDS011;11580;52.562;13.418;2022-08-11T00:07:43;2.80;;;2.30;;
22826;SDS011;11580;52.562;13.418;2022-08-11T00:10:16;2.47;;;2.27;;
22826;SDS011;11580;52.562;13.418;2022-08-11T00:12:49;3.03;;;2.33;;
22826;SDS011;11580;52.562;13.418;2022-08-11T00:15:23;2.20;;;2.10;;
22826;SDS011;11580;52.562;13.418;2022-08-11T00:17:55;1.93;;;1.83;;
22826;SDS011;11580;52.562;13.418;2022-08-11T00:20:29;3.50;;;2.37;;
22826;SDS011;11580;52.562;13.418;2022-08-11T00:23:00;2.63;;;2.33;;
22826;SDS011;11580;52.562;13.418;2022-08-11T00:25:36;2.40;;;2.20;;
22826;SDS011;11580;52.562;13.418;2022-08-11T00:28:17;2.80;;;2.10;;
22826;SDS011;11580;52.562;13.418;2022-08-11T00:30:53;2.70;;;2.27;;
22826;SDS011;11580;52.562;13.418;2022-08-11T00:33:24;3.03;;;2.70;;
22826;SDS011;11580;52.562;13.418;2022-08-11T00:36:00;2.37;;;2.20;;
22826;SDS011;11580;52.562;13.418;2022-08-11T00:38:32;2.37;;;2.10;;
22826;SDS011;11580;52.562;13.418;2022-08-11T00:41:15;3.20;;;2.50;;
22826;SDS011;11580;52.562;13.418;2022-08-11T00:44:09;2.30;;;2.20;;
22826;SDS011;11580;52.562;13.418;2022-08-11T00:46:56;2.60;;;2.40;;
22826;SDS011;11580;52.562;13.418;2022-08-11T00:49:38;2.60;;;2.40;;
22826;SDS011;11580;52.562;13.418;2022-08-11T00:52:25;2.30;;;2.20;;
22826;SDS011;11580;52.562;13.418;2022-08-11T00:58:23;4.43;;;2.70;;
22826;SDS011;11580;52.562;13.418;2022-08-11T01:01:47;2.43;;;2.23;;
22826;SDS011;11580;52.562;13.418;2022-08-11T01:08:11;3.20;;;2.10;;
22826;SDS011;11580;52.562;13.418;2022-08-11T01:11:13;2.70;;;2.50;;
22826;SDS011;11580;52.562;13.418;2022-08-11T01:14:21;2.50;;;2.13;;
22826;SDS011;11580;52.562;13.418;2022-08-11T01:17:46;2.80;;;2.43;;
22826;SDS011;11580;52.562;13.418;2022-08-11T01:21:04;2.67;;;2.47;;
22826;SDS011;11580;52.562;13.418;2022-08-11T01:31:35;2.27;;;2.07;;
22826;SDS011;11580;52.562;13.418;2022-08-11T01:35:13;2.33;;;2.13;;
22826;SDS011;11580;52.562;13.418;2022-08-11T01:38:20;2.73;;;2.53;;
22826;SDS011;11580;52.562;13.418;2022-08-11T01:41:27;2.80;;;2.57;;
22826;SDS011;11580;52.562;13.418;2022-08-11T01:44:50;3.33;;;2.77;;
22826;SDS011;11580;52.562;13.418;2022-08-11T01:47:41;2.33;;;2.13;;
22826;SDS011;11580;52.562;13.418;2022-08-11T01:50:27;2.63;;;2.30;;
22826;SDS011;11580;52.562;13.418;2022-08-11T01:53:17;2.70;;;2.50;;
22826;SDS011;11580;52.562;13.418;2022-08-11T01:56:00;2.73;;;2.53;;
22826;SDS011;11580;52.562;13.418;2022-08-11T01:58:47;2.83;;;2.63;;
22826;SDS011;11580;52.562;13.418;2022-08-11T02:01:36;2.80;;;2.60;;
22826;SDS011;11580;52.562;13.418;2022-08-11T02:04:18;2.80;;;2.60;;
22826;SDS011;11580;52.562;13.418;2022-08-11T02:07:01;2.33;;;2.23;;
22826;SDS011;11580;52.562;13.418;2022-08-11T02:09:49;5.83;;;2.50;;
22826;SDS011;11580;52.562;13.418;2022-08-11T02:12:59;3.00;;;2.77;;
22826;SDS011;11580;52.562;13.418;2022-08-11T02:15:44;3.10;;;2.80;;
22826;SDS011;11580;52.562;13.418;2022-08-11T02:18:22;2.50;;;2.30;;
22826;SDS011;11580;52.562;13.418;2022-08-11T02:21:14;3.03;;;2.83;;
22826;SDS011;11580;52.562;13.418;2022-08-11T02:24:10;2.87;;;2.57;;
22826;SDS011;11580;52.562;13.418;2022-08-11T02:26:56;2.63;;;2.43;;
22826;SDS011;11580;52.562;13.418;2022-08-11T02:29:34;2.40;;;2.20;;
22826;SDS011;11580;52.562;13.418;2022-08-11T02:32:19;3.20;;;2.90;;
22826;SDS011;11580;52.562;13.418;2022-08-11T02:35:13;2.80;;;2.60;;
22826;SDS011;11580;52.562;13.418;2022-08-11T02:37:49;2.93;;;2.60;;
22826;SDS011;11580;52.562;13.418;2022-08-11T02:40:35;2.80;;;2.60;;
22826;SDS011;11580;52.562;13.418;2022-08-11T02:43:17;2.67;;;2.47;;
22826;SDS011;11580;52.562;13.418;2022-08-11T02:46:00;2.60;;;2.50;;
22826;SDS011;11580;52.562;13.418;2022-08-11T02:48:50;3.47;;;2.80;;
22826;SDS011;11580;52.562;13.418;2022-08-11T02:51:55;2.60;;;2.40;;
22826;SDS011;11580;52.562;13.418;2022-08-11T02:54:34;2.27;;;2.17;;
22826;SDS011;11580;52.562;13.418;2022-08-11T02:57:14;3.53;;;2.90;;
22826;SDS011;11580;52.562;13.418;2022-08-11T02:59:58;3.00;;;2.70;;
22826;SDS011;11580;52.562;13.418;2022-08-11T03:02:39;2.93;;;2.70;;
22826;SDS011;11580;52.562;13.418;2022-08-11T03:05:36;4.30;;;2.87;;
22826;SDS011;11580;52.562;13.418;2022-08-11T03:11:19;3.20;;;2.90;;
22826;SDS011;11580;52.562;13.418;2022-08-11T03:14:27;2.57;;;2.40;;
22826;SDS011;11580;52.562;13.418;2022-08-11T03:17:23;3.10;;;2.80;;
22826;SDS011;11580;52.562;13.418;2022-08-11T03:22:58;4.77;;;3.03;;
22826;SDS011;11580;52.562;13.418;2022-08-11T03:25:35;2.87;;;2.53;;
22826;SDS011;11580;52.562;13.418;2022-08-11T03:28:29;3.10;;;2.90;;
22826;SDS011;11580;52.562;13.418;2022-08-11T03:31:07;5.70;;;3.40;;
22826;SDS011;11580;52.562;13.418;2022-08-11T03:33:50;3.13;;;2.80;;
22826;SDS011;11580;52.562;13.418;2022-08-11T03:36:50;3.13;;;2.83;;
22826;SDS011;11580;52.562;13.418;2022-08-11T03:40:11;3.10;;;2.90;;
22826;SDS011;11580;52.562;13.418;2022-08-11T03:43:27;2.93;;;2.73;;
22826;SDS011;11580;52.562;13.418;2022-08-11T03:46:25;5.33;;;3.20;;
22826;SDS011;11580;52.562;13.418;2022-08-11T03:49:14;3.37;;;3.07;;
22826;SDS011;11580;52.562;13.418;2022-08-11T03:51:58;3.60;;;3.30;;
22826;SDS011;11580;52.562;13.418;2022-08-11T03:54:43;5.93;;;3.60;;
22826;SDS011;11580;52.562;13.418;2022-08-11T03:57:32;4.43;;;3.07;;
22826;SDS011;11580;52.562;13.418;2022-08-11T04:01:02;3.13;;;2.83;;
22826;SDS011;11580;52.562;13.418;2022-08-11T04:04:12;3.63;;;3.33;;
22826;SDS011;11580;52.562;13.418;2022-08-11T04:17:54;5.20;;;3.33;;
22826;SDS011;11580;52.562;13.418;2022-08-11T04:21:18;3.60;;;2.93;;
22826;SDS011;11580;52.562;13.418;2022-08-11T04:24:11;5.73;;;3.47;;
22826;SDS011;11580;52.562;13.418;2022-08-11T04:30:41;5.27;;;3.80;;
22826;SDS011;11580;52.562;13.418;2022-08-11T04:37:10;3.17;;;2.83;;
22826;SDS011;11580;52.562;13.418;2022-08-11T04:40:07;7.10;;;4.30;;
22826;SDS011;11580;52.562;13.418;2022-08-11T04:50:34;4.20;;;3.63;;
22826;SDS011;11580;52.562;13.418;2022-08-11T04:53:41;4.20;;;3.80;;
22826;SDS011;11580;52.562;13.418;2022-08-11T04:56:42;4.23;;;3.67;;
22826;SDS011;11580;52.562;13.418;2022-08-11T04:59:42;4.20;;;3.80;;
22826;SDS011;11580;52.562;13.418;2022-08-11T05:09:41;4.30;;;4.00;;
22826;SDS011;11580;52.562;13.418;2022-08-11T05:12:40;8.13;;;4.53;;
22826;SDS011;11580;52.562;13.418;2022-08-11T05:15:15;4.50;;;4.10;;
22826;SDS011;11580;52.562;13.418;2022-08-11T05:18:12;6.90;;;3.73;;
22826;SDS011;11580;52.562;13.418;2022-08-11T05:21:02;4.90;;;4.50;;
22826;SDS011;11580;52.562;13.418;2022-08-11T05:24:04;4.70;;;4.30;;
22826;SDS011;11580;52.562;13.418;2022-08-11T05:27:01;5.00;;;4.30;;
22826;SDS011;11580;52.562;13.418;2022-08-11T05:29:52;5.23;;;4.50;;
22826;SDS011;11580;52.562;13.418;2022-08-11T05:32:45;6.80;;;4.77;;
22826;SDS011;11580;52.562;13.418;2022-08-11T05:35:43;5.93;;;4.63;;
22826;SDS011;11580;52.562;13.418;2022-08-11T05:38:15;5.43;;;4.80;;
22826;SDS011;11580;52.562;13.418;2022-08-11T05:41:06;6.63;;;4.53;;
22826;SDS011;11580;52.562;13.418;2022-08-11T05:43:56;5.40;;;4.50;;
22826;SDS011;11580;52.562;13.418;2022-08-11T05:46:44;4.53;;;4.10;;
22826;SDS011;11580;52.562;13.418;2022-08-11T05:49:31;6.67;;;4.73;;
22826;SDS011;11580;52.562;13.418;2022-08-11T05:52:20;6.30;;;4.90;;
22826;SDS011;11580;52.562;13.418;2022-08-11T05:55:07;5.50;;;5.00;;
22826;SDS011;11580;52.562;13.418;2022-08-11T05:57:54;5.97;;;4.60;;
22826;SDS011;11580;52.562;13.418;2022-08-11T06:00:25;4.97;;;4.53;;
22826;SDS011;11580;52.562;13.418;2022-08-11T06:02:54;6.23;;;4.93;;
22826;SDS011;11580;52.562;13.418;2022-08-11T06:05:30;6.10;;;4.47;;
22826;SDS011;11580;52.562;13.418;2022-08-11T06:07:59;7.50;;;5.70;;
22826;SDS011;11580;52.562;13.418;2022-08-11T06:10:29;6.50;;;5.27;;
22826;SDS011;11580;52.562;13.418;2022-08-11T06:13:01;5.33;;;4.87;;
22826;SDS011;11580;52.562;13.418;2022-08-11T06:15:34;7.63;;;5.60;;
22826;SDS011;11580;52.562;13.418;2022-08-11T06:18:11;4.73;;;4.43;;
22826;SDS011;11580;52.562;13.418;2022-08-11T06:20:47;4.77;;;4.30;;
22826;SDS011;11580;52.562;13.418;2022-08-11T06:23:20;5.97;;;5.23;;
22826;SDS011;11580;52.562;13.418;2022-08-11T06:25:51;5.93;;;5.30;;
22826;SDS011;11580;52.562;13.418;2022-08-11T06:28:19;5.67;;;5.27;;
22826;SDS011;11580;52.562;13.418;2022-08-11T06:30:59;6.03;;;5.57;;
22826;SDS011;11580;52.562;13.418;2022-08-11T06:33:36;6.10;;;5.70;;
22826;SDS011;11580;52.562;13.418;2022-08-11T06:36:21;5.70;;;5.30;;
22826;SDS011;11580;52.562;13.418;2022-08-11T06:39:04;5.20;;;4.70;;
22826;SDS011;11580;52.562;13.418;2022-08-11T06:41:47;5.70;;;5.20;;
22826;SDS011;11580;52.562;13.418;2022-08-11T06:44:32;5.30;;;4.80;;
22826;SDS011;11580;52.562;13.418;2022-08-11T06:47:10;5.67;;;5.17;;
22826;SDS011;11580;52.562;13.418;2022-08-11T06:49:43;5.17;;;4.83;;
22826;SDS011;11580;52.562;13.418;2022-08-11T06:52:31;5.27;;;4.80;;
22826;SDS011;11580;52.562;13.418;2022-08-11T06:55:04;5.40;;;4.97;;
22826;SDS011;11580;52.562;13.418;2022-08-11T06:57:36;4.83;;;4.40;;
22826;SDS011;11580;52.562;13.418;2022-08-11T07:00:27;4.70;;;4.30;;
22826;SDS011;11580;52.562;13.418;2022-08-11T07:03:02;8.53;;;4.97;;
22826;SDS011;11580;52.562;13.418;2022-08-11T07:05:39;4.70;;;4.40;;
22826;SDS011;11580;52.562;13.418;2022-08-11T07:15:23;4.83;;;4.23;;
22826;SDS011;11580;52.562;13.418;2022-08-11T07:18:08;4.10;;;3.80;;
22826;SDS011;11580;52.562;13.418;2022-08-11T07:21:04;4.47;;;4.07;;
22826;SDS011;11580;52.562;13.418;2022-08-11T07:23:55;3.97;;;3.77;;
22826;SDS011;11580;52.562;13.418;2022-08-11T07:26:47;5.53;;;5.07;;
22826;SDS011;11580;52.562;13.418;2022-08-11T07:29:38;5.77;;;3.87;;
22826;SDS011;11580;52.562;13.418;2022-08-11T07:32:13;4.30;;;3.90;;
22826;SDS011;11580;52.562;13.418;2022-08-11T07:34:49;4.60;;;4.27;;
22826;SDS011;11580;52.562;13.418;2022-08-11T07:37:23;5.80;;;4.60;;
22826;SDS011;11580;52.562;13.418;2022-08-11T07:39:56;3.90;;;3.70;;
22826;SDS011;11580;52.562;13.418;2022-08-11T07:42:26;4.67;;;4.27;;
22826;SDS011;11580;52.562;13.418;2022-08-11T07:44:59;3.83;;;3.53;;
22826;SDS011;11580;52.562;13.418;2022-08-11T07:47:49;4.27;;;3.97;;
22826;SDS011;11580;52.562;13.418;2022-08-11T07:50:40;4.20;;;3.90;;
22826;SDS011;11580;52.562;13.418;2022-08-11T07:53:27;4.00;;;3.70;;
22826;SDS011;11580;52.562;13.418;2022-08-11T07:55:59;3.80;;;3.60;;
22826;SDS011;11580;52.562;13.418;2022-08-11T07:58:29;4.50;;;4.10;;
22826;SDS011;11580;52.562;13.418;2022-08-11T08:01:17;4.27;;;3.97;;
22826;SDS011;11580;52.562;13.418;2022-08-11T08:04:04;4.27;;;3.87;;
22826;SDS011;11580;52.562;13.418;2022-08-11T08:06:54;4.50;;;4.20;;
22826;SDS011;11580;52.562;13.418;2022-08-11T08:09:41;4.70;;;4.30;;
22826;SDS011;11580;52.562;13.418;2022-08-11T08:12:28;4.37;;;4.00;;
22826;SDS011;11580;52.562;13.418;2022-08-11T08:15:14;4.67;;;3.97;;
22826;SDS011;11580;52.562;13.418;2022-08-11T08:18:03;3.90;;;3.63;;
22826;SDS011;11580;52.562;13.418;2022-08-11T08:20:36;4.50;;;3.70;;
22826;SDS011;11580;52.562;13.418;2022-08-11T08:23:09;3.80;;;3.60;;
22826;SDS011;11580;52.562;13.418;2022-08-11T08:25:38;5.10;;;3.93;;
22826;SDS011;11580;52.562;13.418;2022-08-11T08:28:09;3.80;;;3.60;;
22826;SDS011;11580;52.562;13.418;2022-08-11T08:30:41;4.97;;;3.87;;
22826;SDS011;11580;52.562;13.418;2022-08-11T08:33:11;3.93;;;3.63;;
22826;SDS011;11580;52.562;13.418;2022-08-11T08:35:43;4.60;;;4.20;;
22826;SDS011;11580;52.562;13.418;2022-08-11T08:38:12;4.00;;;3.70;;
22826;SDS011;11580;52.562;13.418;2022-08-11T08:40:41;3.93;;;3.63;;
22826;SDS011;11580;52.562;13.418;2022-08-11T08:43:14;4.13;;;3.80;;
22826;SDS011;11580;52.562;13.418;2022-08-11T08:45:42;3.67;;;3.47;;
22826;SDS011;11580;52.562;13.418;2022-08-11T08:48:12;3.70;;;3.40;;
22826;SDS011;11580;52.562;13.418;2022-08-11T08:50:47;3.77;;;3.47;;
22826;SDS011;11580;52.562;13.418;2022-08-11T08:53:42;3.70;;;3.30;;
22826;SDS011;11580;52.562;13.418;2022-08-11T08:56:15;5.60;;;3.80;;
22826;SDS011;11580;52.562;13.418;2022-08-11T08:58:44;3.37;;;3.17;;
22826;SDS011;11580;52.562;13.418;2022-08-11T09:01:15;3.60;;;3.40;;
22826;SDS011;11580;52.562;13.418;2022-08-11T09:03:46;3.97;;;3.70;;
22826;SDS011;11580;52.562;13.418;2022-08-11T09:06:14;3.83;;;3.53;;
22826;SDS011;11580;52.562;13.418;2022-08-11T09:08:44;4.20;;;3.90;;
22826;SDS011;11580;52.562;13.418;2022-08-11T09:11:12;4.17;;;3.90;;
22826;SDS011;11580;52.562;13.418;2022-08-11T09:13:58;3.60;;;3.30;;
22826;SDS011;11580;52.562;13.418;2022-08-11T09:16:29;3.83;;;3.43;;
22826;SDS011;11580;52.562;13.418;2022-08-11T09:18:56;3.83;;;3.43;;
22826;SDS011;11580;52.562;13.418;2022-08-11T09:21:27;4.40;;;3.50;;
22826;SDS011;11580;52.562;13.418;2022-08-11T09:23:57;4.03;;;3.77;;
22826;SDS011;11580;52.562;13.418;2022-08-11T09:26:44;4.53;;;3.67;;
22826;SDS011;11580;52.562;13.418;2022-08-11T09:29:28;3.60;;;3.40;;
22826;SDS011;11580;52.562;13.418;2022-08-11T09:31:56;3.50;;;3.30;;
22826;SDS011;11580;52.562;13.418;2022-08-11T09:34:25;4.70;;;3.30;;
22826;SDS011;11580;52.562;13.418;2022-08-11T09:36:53;4.13;;;3.83;;
22826;SDS011;11580;52.562;13.418;2022-08-11T09:39:40;3.40;;;3.20;;
22826;SDS011;11580;52.562;13.418;2022-08-11T09:42:25;3.17;;;2.97;;
22826;SDS011;11580;52.562;13.418;2022-08-11T09:45:07;3.40;;;3.10;;
22826;SDS011;11580;52.562;13.418;2022-08-11T09:47:37;3.93;;;3.57;;
22826;SDS011;11580;52.562;13.418;2022-08-11T09:50:06;3.30;;;3.10;;
22826;SDS011;11580;52.562;13.418;2022-08-11T09:52:37;4.10;;;3.80;;
22826;SDS011;11580;52.562;13.418;2022-08-11T09:55:08;4.00;;;3.80;;
22826;SDS011;11580;52.562;13.418;2022-08-11T09:57:37;4.20;;;3.33;;
22826;SDS011;11580;52.562;13.418;2022-08-11T10:00:27;3.73;;;3.43;;
22826;SDS011;11580;52.562;13.418;2022-08-11T10:02:57;3.50;;;3.30;;
22826;SDS011;11580;52.562;13.418;2022-08-11T10:05:26;3.77;;;3.47;;
22826;SDS011;11580;52.562;13.418;2022-08-11T10:08:13;3.07;;;2.87;;
22826;SDS011;11580;52.562;13.418;2022-08-11T10:10:47;3.90;;;3.70;;
22826;SDS011;11580;52.562;13.418;2022-08-11T10:13:15;3.90;;;3.47;;
22826;SDS011;11580;52.562;13.418;2022-08-11T10:15:51;3.73;;;3.50;;
22826;SDS011;11580;52.562;13.418;2022-08-11T10:18:27;3.97;;;3.50;;
22826;SDS011;11580;52.562;13.418;2022-08-11T10:21:15;3.50;;;3.20;;
22826;SDS011;11580;52.562;13.418;2022-08-11T10:23:52;4.00;;;3.60;;
22826;SDS011;11580;52.562;13.418;2022-08-11T10:26:41;3.50;;;3.20;;
22826;SDS011;11580;52.562;13.418;2022-08-11T10:29:19;2.83;;;2.73;;
22826;SDS011;11580;52.562;13.418;2022-08-11T10:32:07;3.50;;;3.30;;
22826;SDS011;11580;52.562;13.418;2022-08-11T10:34:53;3.50;;;3.30;;
22826;SDS011;11580;52.562;13.418;2022-08-11T10:37:24;3.37;;;3.10;;
22826;SDS011;11580;52.562;13.418;2022-08-11T10:39:55;3.80;;;3.50;;
22826;SDS011;11580;52.562;13.418;2022-08-11T10:42:24;3.73;;;3.53;;
22826;SDS011;11580;52.562;13.418;2022-08-11T10:45:09;3.13;;;2.93;;
22826;SDS011;11580;52.562;13.418;2022-08-11T10:47:50;3.77;;;3.57;;
22826;SDS011;11580;52.562;13.418;2022-08-11T10:50:19;3.40;;;2.83;;
22826;SDS011;11580;52.562;13.418;2022-08-11T10:53:06;3.40;;;3.20;;
22826;SDS011;11580;52.562;13.418;2022-08-11T10:55:52;3.53;;;3.33;;
22826;SDS011;11580;52.562;13.418;2022-08-11T10:58:39;6.03;;;3.50;;
22826;SDS011;11580;52.562;13.418;2022-08-11T11:01:14;3.27;;;3.07;;
22826;SDS011;11580;52.562;13.418;2022-08-11T11:03:48;3.43;;;3.13;;
22826;SDS011;11580;52.562;13.418;2022-08-11T11:06:21;3.57;;;3.27;;
22826;SDS011;11580;52.562;13.418;2022-08-11T11:08:56;3.17;;;2.97;;
22826;SDS011;11580;52.562;13.418;2022-08-11T11:11:31;3.47;;;3.27;;
22826;SDS011;11580;52.562;13.418;2022-08-11T11:14:23;3.47;;;3.10;;
22826;SDS011;11580;52.562;13.418;2022-08-11T11:17:14;3.47;;;3.27;;
22826;SDS011;11580;52.562;13.418;2022-08-11T11:20:08;3.30;;;3.10;;
22826;SDS011;11580;52.562;13.418;2022-08-11T11:22:41;3.67;;;3.37;;
22826;SDS011;11580;52.562;13.418;2022-08-11T11:25:20;3.33;;;3.10;;
22826;SDS011;11580;52.562;13.418;2022-08-11T11:31:09;3.83;;;3.43;;
22826;SDS011;11580;52.562;13.418;2022-08-11T11:33:57;3.90;;;3.60;;
22826;SDS011;11580;52.562;13.418;2022-08-11T11:36:43;3.90;;;3.60;;
22826;SDS011;11580;52.562;13.418;2022-08-11T11:39:16;3.47;;;3.20;;
22826;SDS011;11580;52.562;13.418;2022-08-11T11:41:47;3.13;;;2.90;;
22826;SDS011;11580;52.562;13.418;2022-08-11T11:44:17;4.03;;;3.67;;
22826;SDS011;11580;52.562;13.418;2022-08-11T11:46:48;3.07;;;2.87;;
22826;SDS011;11580;52.562;13.418;2022-08-11T11:49:18;5.93;;;3.30;;
22826;SDS011;11580;52.562;13.418;2022-08-11T11:51:49;3.13;;;2.93;;
22826;SDS011;11580;52.562;13.418;2022-08-11T11:54:19;4.10;;;3.90;;
22826;SDS011;11580;52.562;13.418;2022-08-11T11:56:51;3.70;;;3.40;;
22826;SDS011;11580;52.562;13.418;2022-08-11T11:59:21;3.57;;;3.00;;
22826;SDS011;11580;52.562;13.418;2022-08-11T12:02:12;2.90;;;2.73;;
22826;SDS011;11580;52.562;13.418;2022-08-11T12:04:41;3.77;;;3.57;;
22826;SDS011;11580;52.562;13.418;2022-08-11T12:07:11;3.30;;;3.10;;
22826;SDS011;11580;52.562;13.418;2022-08-11T12:09:57;3.93;;;3.63;;
22826;SDS011;11580;52.562;13.418;2022-08-11T12:12:25;3.43;;;3.13;;
22826;SDS011;11580;52.562;13.418;2022-08-11T12:15:10;3.37;;;3.17;;
22826;SDS011;11580;52.562;13.418;2022-08-11T12:17:40;3.20;;;3.00;;
22826;SDS011;11580;52.562;13.418;2022-08-11T12:20:07;3.10;;;3.00;;
22826;SDS011;11580;52.562;13.418;2022-08-11T12:22:35;3.30;;;3.10;;
22826;SDS011;11580;52.562;13.418;2022-08-11T12:25:20;3.50;;;3.20;;
22826;SDS011;11580;52.562;13.418;2022-08-11T12:28:05;3.50;;;3.20;;
22826;SDS011;11580;52.562;13.418;2022-08-11T12:30:32;3.13;;;2.93;;
22826;SDS011;11580;52.562;13.418;2022-08-11T12:33:01;3.57;;;3.37;;
22826;SDS011;11580;52.562;13.418;2022-08-11T12:35:28;3.03;;;2.43;;
22826;SDS011;11580;52.562;13.418;2022-08-11T12:37:56;3.27;;;2.97;;
22826;SDS011;11580;52.562;13.418;2022-08-11T12:40:25;3.00;;;2.90;;
22826;SDS011;11580;52.562;13.418;2022-08-11T12:43:23;2.83;;;2.63;;
22826;SDS011;11580;52.562;13.418;2022-08-11T12:46:15;3.33;;;3.03;;
22826;SDS011;11580;52.562;13.418;2022-08-11T12:48:51;3.20;;;3.00;;
22826;SDS011;11580;52.562;13.418;2022-08-11T12:51:44;2.90;;;2.70;;
22826;SDS011;11580;52.562;13.418;2022-08-11T12:54:24;3.40;;;3.10;;
22826;SDS011;11580;52.562;13.418;2022-08-11T12:56:57;3.00;;;2.70;;
22826;SDS011;11580;52.562;13.418;2022-08-11T12:59:48;3.13;;;2.90;;
22826;SDS011;11580;52.562;13.418;2022-08-11T13:02:33;2.93;;;2.73;;
22826;SDS011;11580;52.562;13.418;2022-08-11T13:05:20;5.77;;;2.70;;
22826;SDS011;11580;52.562;13.418;2022-08-11T13:07:48;3.00;;;2.53;;
22826;SDS011;11580;52.562;13.418;2022-08-11T13:10:18;2.40;;;2.20;;
22826;SDS011;11580;52.562;13.418;2022-08-11T13:13:01;2.90;;;2.60;;
22826;SDS011;11580;52.562;13.418;2022-08-11T13:15:30;3.07;;;2.87;;
22826;SDS011;11580;52.562;13.418;2022-08-11T13:18:00;3.30;;;3.10;;
22826;SDS011;11580;52.562;13.418;2022-08-11T13:20:33;3.30;;;3.10;;
22826;SDS011;11580;52.562;13.418;2022-08-11T13:23:01;2.90;;;2.80;;
22826;SDS011;11580;52.562;13.418;2022-08-11T13:25:30;2.63;;;2.43;;
22826;SDS011;11580;52.562;13.418;2022-08-11T13:27:59;2.57;;;2.37;;
22826;SDS011;11580;52.562;13.418;2022-08-11T13:30:28;3.17;;;2.97;;
22826;SDS011;11580;52.562;13.418;2022-08-11T13:33:14;2.80;;;2.60;;
22826;SDS011;11580;52.562;13.418;2022-08-11T13:35:46;2.80;;;2.60;;
22826;SDS011;11580;52.562;13.418;2022-08-11T13:38:17;2.50;;;2.40;;
22826;SDS011;11580;52.562;13.418;2022-08-11T13:40:48;3.57;;;2.40;;
22826;SDS011;11580;52.562;13.418;2022-08-11T13:43:20;3.00;;;2.80;;
22826;SDS011;11580;52.562;13.418;2022-08-11T13:45:49;2.67;;;2.53;;
22826;SDS011;11580;52.562;13.418;2022-08-11T13:48:38;3.27;;;2.60;;
22826;SDS011;11580;52.562;13.418;2022-08-11T13:51:09;2.70;;;2.50;;
22826;SDS011;11580;52.562;13.418;2022-08-11T13:53:57;2.63;;;2.43;;
22826;SDS011;11580;52.562;13.418;2022-08-11T13:56:28;2.47;;;2.37;;
22826;SDS011;11580;52.562;13.418;2022-08-11T13:58:57;2.53;;;2.40;;
22826;SDS011;11580;52.562;13.418;2022-08-11T14:01:27;2.57;;;2.37;;
22826;SDS011;11580;52.562;13.418;2022-08-11T14:04:02;2.80;;;2.60;;
22826;SDS011;11580;52.562;13.418;2022-08-11T14:06:36;2.53;;;2.23;;
22826;SDS011;11580;52.562;13.418;2022-08-11T14:09:10;2.47;;;2.27;;
22826;SDS011;11580;52.562;13.418;2022-08-11T14:11:42;3.27;;;2.97;;
22826;SDS011;11580;52.562;13.418;2022-08-11T14:14:30;3.03;;;2.83;;
22826;SDS011;11580;52.562;13.418;2022-08-11T14:17:03;2.67;;;2.47;;
22826;SDS011;11580;52.562;13.418;2022-08-11T14:19:34;3.20;;;2.57;;
22826;SDS011;11580;52.562;13.418;2022-08-11T14:22:10;2.47;;;2.27;;
22826;SDS011;11580;52.562;13.418;2022-08-11T14:24:42;2.50;;;2.30;;
22826;SDS011;11580;52.562;13.418;2022-08-11T14:27:13;2.37;;;2.27;;
22826;SDS011;11580;52.562;13.418;2022-08-11T14:29:43;4.73;;;2.30;;
22826;SDS011;11580;52.562;13.418;2022-08-11T14:32:12;2.60;;;2.50;;
22826;SDS011;11580;52.562;13.418;2022-08-11T14:34:41;2.30;;;2.20;;
22826;SDS011;11580;52.562;13.418;2022-08-11T14:37:12;2.63;;;2.43;;
22826;SDS011;11580;52.562;13.418;2022-08-11T14:39:45;3.00;;;2.40;;
22826;SDS011;11580;52.562;13.418;2022-08-11T14:42:16;2.20;;;2.10;;
22826;SDS011;11580;52.562;13.418;2022-08-11T14:45:03;2.07;;;1.97;;
22826;SDS011;11580;52.562;13.418;2022-08-11T14:47:55;2.13;;;2.00;;
22826;SDS011;11580;52.562;13.418;2022-08-11T14:50:26;2.10;;;1.90;;
22826;SDS011;11580;52.562;13.418;2022-08-11T14:52:58;2.17;;;2.07;;
22826;SDS011;11580;52.562;13.418;2022-08-11T14:55:30;2.70;;;1.87;;
22826;SDS011;11580;52.562;13.418;2022-08-11T14:58:19;1.90;;;1.80;;
22826;SDS011;11580;52.562;13.418;2022-08-11T15:00:54;2.23;;;2.13;;
22826;SDS011;11580;52.562;13.418;2022-08-11T15:03:24;3.03;;;2.00;;
22826;SDS011;11580;52.562;13.418;2022-08-11T15:05:56;2.40;;;2.20;;
22826;SDS011;11580;52.562;13.418;2022-08-11T15:08:28;1.90;;;1.80;;
22826;SDS011;11580;52.562;13.418;2022-08-11T15:11:16;1.83;;;1.73;;
22826;SDS011;11580;52.562;13.418;2022-08-11T15:14:05;1.90;;;1.80;;
22826;SDS011;11580;52.562;13.418;2022-08-11T15:16:35;2.00;;;1.90;;
22826;SDS011;11580;52.562;13.418;2022-08-11T15:19:23;2.10;;;2.00;;
22826;SDS011;11580;52.562;13.418;2022-08-11T15:21:57;1.70;;;1.60;;
22826;SDS011;11580;52.562;13.418;2022-08-11T15:24:43;2.60;;;1.70;;
22826;SDS011;11580;52.562;13.418;2022-08-11T15:27:12;3.17;;;1.67;;
22826;SDS011;11580;52.562;13.418;2022-08-11T15:30:03;4.40;;;2.10;;
22826;SDS011;11580;52.562;13.418;2022-08-11T15:32:50;1.67;;;1.50;;
22826;SDS011;11580;52.562;13.418;2022-08-11T15:35:38;1.53;;;1.43;;
22826;SDS011;11580;52.562;13.418;2022-08-11T15:38:26;1.90;;;1.80;;
22826;SDS011;11580;52.562;13.418;2022-08-11T15:41:02;1.70;;;1.60;;
22826;SDS011;11580;52.562;13.418;2022-08-11T15:43:50;1.43;;;1.33;;
22826;SDS011;11580;52.562;13.418;2022-08-11T15:46:39;1.80;;;1.70;;
22826;SDS011;11580;52.562;13.418;2022-08-11T15:49:11;2.83;;;2.10;;
22826;SDS011;11580;52.562;13.418;2022-08-11T15:51:44;3.27;;;1.70;;
22826;SDS011;11580;52.562;13.418;2022-08-11T15:54:16;1.80;;;1.70;;
22826;SDS011;11580;52.562;13.418;2022-08-11T15:56:50;1.60;;;1.50;;
22826;SDS011;11580;52.562;13.418;2022-08-11T15:59:22;1.97;;;1.33;;
22826;SDS011;11580;52.562;13.418;2022-08-11T16:02:12;1.63;;;1.53;;
22826;SDS011;11580;52.562;13.418;2022-08-11T16:05:02;2.90;;;1.57;;
22826;SDS011;11580;52.562;13.418;2022-08-11T16:07:37;1.77;;;1.67;;
22826;SDS011;11580;52.562;13.418;2022-08-11T16:10:06;1.47;;;1.37;;
22826;SDS011;11580;52.562;13.418;2022-08-11T16:12:38;2.23;;;2.03;;
22826;SDS011;11580;52.562;13.418;2022-08-11T16:15:29;1.83;;;1.73;;
22826;SDS011;11580;52.562;13.418;2022-08-11T16:18:18;3.63;;;1.60;;
22826;SDS011;11580;52.562;13.418;2022-08-11T16:20:48;2.00;;;1.90;;
22826;SDS011;11580;52.562;13.418;2022-08-11T16:23:19;1.77;;;1.67;;
22826;SDS011;11580;52.562;13.418;2022-08-11T16:25:52;1.73;;;1.63;;
22826;SDS011;11580;52.562;13.418;2022-08-11T16:28:25;1.63;;;1.53;;
22826;SDS011;11580;52.562;13.418;2022-08-11T16:30:57;1.97;;;1.57;;
22826;SDS011;11580;52.562;13.418;2022-08-11T16:33:24;1.80;;;1.70;;
22826;SDS011;11580;52.562;13.418;2022-08-11T16:35:53;1.60;;;1.50;;
22826;SDS011;11580;52.562;13.418;2022-08-11T16:38:39;1.67;;;1.57;;
22826;SDS011;11580;52.562;13.418;2022-08-11T16:41:09;1.87;;;1.70;;
22826;SDS011;11580;52.562;13.418;2022-08-11T16:44:02;4.10;;;1.83;;
22826;SDS011;11580;52.562;13.418;2022-08-11T16:46:50;1.77;;;1.67;;
22826;SDS011;11580;52.562;13.418;2022-08-11T16:49:28;1.73;;;1.63;;
22826;SDS011;11580;52.562;13.418;2022-08-11T16:51:58;1.70;;;1.60;;
22826;SDS011;11580;52.562;13.418;2022-08-11T16:54:28;1.90;;;1.80;;
22826;SDS011;11580;52.562;13.418;2022-08-11T16:56:57;1.60;;;1.33;;
22826;SDS011;11580;52.562;13.418;2022-08-11T16:59:45;3.30;;;2.10;;